createdAt,value
2022-11-14T00:01:16.910Z,46.05
2022-11-14T00:03:43.590Z,45.70
2022-11-14T00:06:12.763Z,50.15
2022-11-14T00:08:39.431Z,48.90
2022-11-14T00:11:06.078Z,46.00
2022-11-14T00:13:32.752Z,45.67
2022-11-14T00:15:59.413Z,46.88
2022-11-14T00:18:26.057Z,43.22
2022-11-14T00:20:53.509Z,46.17
2022-11-14T00:23:23.773Z,45.05
2022-11-14T00:25:50.889Z,43.50
2022-11-14T00:28:17.560Z,41.67
2022-11-14T00:30:50.273Z,42.92
2022-11-14T00:33:20.885Z,36.75
2022-11-14T00:35:55.361Z,44.75
2022-11-14T00:38:22.504Z,42.85
2022-11-14T00:40:49.249Z,38.45
2022-11-14T00:43:15.920Z,38.13
2022-11-14T00:45:48.393Z,34.80
2022-11-14T00:48:15.804Z,34.60
2022-11-14T00:50:43.010Z,37.08
2022-11-14T00:53:11.832Z,35.53
2022-11-14T00:55:43.930Z,35.75
2022-11-14T00:58:12.755Z,38.35
2022-11-14T01:00:39.637Z,36.17
2022-11-14T01:03:08.597Z,37.38
2022-11-14T01:05:41.426Z,39.38
2022-11-14T01:08:08.109Z,34.92
2022-11-14T01:10:34.826Z,35.85
2022-11-14T01:13:03.724Z,33.95
2022-11-14T01:15:30.361Z,36.30
2022-11-14T01:17:57.074Z,33.30
2022-11-14T01:20:23.740Z,33.13
2022-11-14T01:22:50.416Z,33.70
2022-11-14T01:25:17.090Z,37.05
2022-11-14T01:27:43.757Z,37.03
2022-11-14T01:30:10.939Z,32.47
2022-11-14T01:32:39.778Z,33.80
2022-11-14T01:35:06.658Z,35.22
2022-11-14T01:37:33.276Z,32.42
2022-11-14T01:39:59.889Z,38.15
2022-11-14T01:42:27.665Z,32.05
2022-11-14T01:44:54.444Z,33.80
2022-11-14T01:47:26.076Z,33.65
2022-11-14T01:49:59.912Z,32.60
2022-11-14T01:54:58.443Z,32.05
2022-11-14T01:57:32.268Z,30.15
2022-11-14T02:00:05.823Z,31.02
2022-11-14T02:02:32.618Z,29.98
2022-11-14T02:05:07.636Z,31.90
2022-11-14T02:07:37.874Z,34.72
2022-11-14T02:10:08.668Z,37.28
2022-11-14T02:12:35.998Z,32.22
2022-11-14T02:15:02.774Z,30.65
2022-11-14T02:17:32.800Z,33.53
2022-11-14T02:20:08.152Z,30.08
2022-11-14T02:22:34.997Z,34.13
2022-11-14T02:25:02.329Z,31.52
2022-11-14T02:27:32.870Z,31.58
2022-11-14T02:30:13.068Z,29.55
2022-11-14T02:33:08.910Z,32.75
2022-11-14T02:35:26.517Z,29.38
2022-11-14T02:37:53.201Z,31.02
2022-11-14T02:40:19.945Z,32.40
2022-11-14T02:42:49.038Z,32.05
2022-11-14T02:45:15.669Z,32.10
2022-11-14T02:47:44.561Z,30.42
2022-11-14T02:50:13.339Z,30.60
2022-11-14T02:52:42.539Z,34.78
2022-11-14T02:55:09.631Z,34.28
2022-11-14T02:57:39.410Z,33.97
2022-11-14T03:00:10.131Z,32.10
2022-11-14T03:02:43.601Z,31.73
2022-11-14T03:05:10.413Z,34.35
2022-11-14T03:07:39.274Z,31.35
2022-11-14T03:10:09.558Z,30.63
2022-11-14T03:12:36.273Z,32.80
2022-11-14T03:15:03.620Z,28.63
2022-11-14T03:17:34.561Z,30.52
2022-11-14T03:20:03.701Z,30.63
2022-11-14T03:22:32.505Z,28.95
2022-11-14T03:24:59.210Z,32.22
2022-11-14T03:27:25.801Z,31.77
2022-11-14T03:29:52.499Z,34.40
2022-11-14T03:32:21.469Z,31.17
2022-11-14T03:34:50.508Z,30.80
2022-11-14T03:37:17.213Z,29.20
2022-11-14T03:39:43.854Z,31.75
2022-11-14T03:42:10.588Z,28.35
2022-11-14T03:44:39.780Z,31.73
2022-11-14T03:47:06.425Z,30.98
2022-11-14T03:49:35.505Z,31.05
2022-11-14T03:52:02.164Z,32.22
2022-11-14T03:54:28.843Z,30.40
2022-11-14T03:57:00.536Z,29.98
2022-11-14T03:59:29.723Z,30.95
2022-11-14T04:01:56.381Z,31.85
2022-11-14T04:04:23.015Z,29.63
2022-11-14T04:06:51.824Z,27.55
2022-11-14T04:09:19.057Z,29.20
2022-11-14T04:11:47.858Z,30.13
2022-11-14T04:14:17.051Z,28.33
2022-11-14T04:16:43.680Z,27.48
2022-11-14T04:19:10.280Z,28.88
2022-11-14T04:21:36.884Z,32.42
2022-11-14T04:24:08.400Z,31.48
2022-11-14T04:26:37.463Z,32.10
2022-11-14T04:29:04.081Z,35.97
2022-11-14T04:31:30.711Z,28.23
2022-11-14T04:33:57.390Z,29.80
2022-11-14T04:36:24.005Z,27.10
2022-11-14T04:38:50.652Z,28.83
2022-11-14T04:41:17.338Z,27.67
2022-11-14T04:43:50.626Z,25.67
2022-11-14T04:46:17.833Z,26.05
2022-11-14T04:48:47.080Z,27.27
2022-11-14T04:51:16.181Z,33.60
2022-11-14T04:53:44.949Z,29.80
2022-11-14T04:56:11.640Z,28.52
2022-11-14T04:58:38.742Z,27.30
2022-11-14T05:01:13.489Z,29.73
2022-11-14T05:03:40.157Z,27.65
2022-11-14T05:06:07.460Z,27.13
2022-11-14T05:08:34.637Z,30.00
2022-11-14T05:11:01.273Z,30.70
2022-11-14T05:13:27.921Z,32.50
2022-11-14T05:16:01.071Z,31.30
2022-11-14T05:18:27.985Z,33.80
2022-11-14T05:20:58.784Z,36.28
2022-11-14T05:23:25.674Z,32.25
2022-11-14T05:26:00.672Z,36.17
2022-11-14T05:28:27.709Z,37.55
2022-11-14T05:31:13.787Z,41.45
2022-11-14T05:33:43.087Z,51.10
2022-11-14T05:36:12.792Z,50.70
2022-11-14T05:38:39.672Z,51.70
2022-11-14T05:41:11.611Z,50.90
2022-11-14T05:43:38.641Z,50.67
2022-11-14T05:46:09.009Z,52.20
2022-11-14T05:48:35.828Z,57.28
2022-11-14T05:51:04.722Z,51.05
2022-11-14T05:53:33.276Z,56.58
2022-11-14T05:56:11.828Z,48.65
2022-11-14T05:58:41.265Z,50.80
2022-11-14T06:01:14.238Z,54.88
2022-11-14T06:03:43.853Z,56.40
2022-11-14T06:06:13.594Z,50.55
2022-11-14T06:08:41.293Z,53.85
2022-11-14T06:11:14.335Z,43.83
2022-11-14T06:13:41.614Z,47.22
2022-11-14T06:16:14.111Z,43.20
2022-11-14T06:18:41.517Z,43.80
2022-11-14T06:21:11.890Z,43.75
2022-11-14T06:23:39.018Z,36.55
2022-11-14T06:26:08.151Z,43.45
2022-11-14T06:28:34.812Z,36.83
2022-11-14T06:31:05.933Z,39.30
2022-11-14T06:33:36.613Z,41.50
2022-11-14T06:36:07.963Z,36.80
2022-11-14T06:38:37.444Z,47.05
2022-11-14T06:41:12.354Z,45.80
2022-11-14T06:43:41.108Z,44.05
2022-11-14T06:46:10.337Z,39.88
2022-11-14T06:48:37.605Z,40.92
2022-11-14T06:51:05.297Z,42.63
2022-11-14T06:53:33.849Z,41.08
2022-11-14T06:56:07.511Z,53.92
2022-11-14T06:58:39.874Z,63.45
2022-11-14T07:01:22.867Z,52.60
2022-11-14T07:03:50.128Z,50.85
2022-11-14T07:06:22.858Z,44.80
2022-11-14T07:08:50.308Z,46.85
2022-11-14T07:11:26.569Z,40.70
2022-11-14T07:14:01.564Z,40.22
2022-11-14T07:16:36.990Z,42.58
2022-11-14T07:19:09.282Z,42.03
2022-11-14T07:21:36.647Z,60.65
2022-11-14T07:24:03.416Z,46.10
2022-11-14T07:26:30.120Z,47.58
2022-11-14T07:29:02.193Z,47.70
2022-11-14T07:31:29.688Z,57.95
2022-11-14T07:33:56.349Z,52.75
2022-11-14T07:36:23.620Z,56.25
2022-11-14T07:38:50.295Z,40.88
2022-11-14T07:41:18.089Z,39.10
2022-11-14T07:43:47.214Z,50.45
2022-11-14T07:46:17.983Z,46.20
2022-11-14T07:48:45.382Z,45.70
2022-11-14T07:51:17.389Z,46.50
2022-11-14T07:53:46.606Z,45.65
2022-11-14T07:56:13.577Z,42.85
2022-11-14T07:58:41.566Z,38.95
2022-11-14T08:01:10.345Z,38.22
2022-11-14T08:03:40.929Z,38.28
2022-11-14T08:06:12.955Z,34.72
2022-11-14T08:08:39.644Z,36.08
2022-11-14T08:11:06.378Z,38.80
2022-11-14T08:13:33.890Z,41.78
2022-11-14T08:16:12.017Z,38.05
2022-11-14T08:18:40.140Z,37.88
2022-11-14T08:21:07.017Z,36.50
2022-11-14T08:23:33.809Z,37.17
2022-11-14T08:26:00.773Z,36.45
2022-11-14T08:28:27.975Z,40.95
2022-11-14T08:31:00.318Z,35.78
2022-11-14T08:33:27.042Z,35.00
2022-11-14T08:35:54.630Z,33.42
2022-11-14T08:38:21.278Z,37.13
2022-11-14T08:40:48.105Z,37.17
2022-11-14T08:43:14.728Z,35.72
2022-11-14T08:45:43.645Z,38.35
2022-11-14T08:48:11.328Z,38.05
2022-11-14T08:50:38.125Z,40.72
2022-11-14T08:53:04.900Z,45.95
2022-11-14T08:55:31.739Z,42.78
2022-11-14T08:57:58.458Z,46.00
2022-11-14T09:00:27.622Z,38.75
2022-11-14T09:02:56.864Z,38.22
2022-11-14T09:05:23.550Z,36.67
2022-11-14T09:07:50.209Z,44.63
2022-11-14T09:10:19.325Z,42.42
2022-11-14T09:12:46.064Z,49.80
2022-11-14T09:15:12.797Z,42.70
2022-11-14T09:17:39.469Z,43.75
2022-11-14T09:20:06.580Z,47.88
2022-11-14T09:22:33.359Z,39.88
2022-11-14T09:24:59.996Z,41.28
2022-11-14T09:27:27.639Z,41.42
2022-11-14T09:29:54.461Z,38.53
2022-11-14T09:32:21.214Z,35.40
2022-11-14T09:34:48.127Z,32.35
2022-11-14T09:37:14.904Z,29.98
2022-11-14T09:39:41.783Z,31.05
2022-11-14T09:42:29.816Z,46.00
2022-11-14T09:45:02.438Z,40.00
2022-11-14T09:47:44.936Z,34.15
2022-11-14T09:50:15.784Z,42.78
2022-11-14T09:52:47.737Z,31.70
2022-11-14T09:55:26.053Z,37.95
2022-11-14T09:57:52.738Z,37.80
2022-11-14T10:00:21.999Z,34.33
2022-11-14T10:02:59.095Z,39.92
2022-11-14T10:05:56.987Z,39.30
2022-11-14T10:08:45.376Z,32.00
2022-11-14T10:11:29.493Z,33.63
2022-11-14T10:16:28.439Z,31.77
2022-11-14T10:19:23.551Z,34.25
2022-11-14T10:22:13.143Z,34.28
2022-11-14T10:25:22.350Z,34.67
2022-11-14T10:28:05.518Z,33.40
2022-11-14T10:31:10.211Z,30.77
2022-11-14T10:33:55.683Z,29.73
2022-11-14T10:36:24.581Z,32.97
2022-11-14T10:39:00.488Z,28.77
2022-11-14T10:41:55.053Z,30.08
2022-11-14T10:44:24.928Z,27.95
2022-11-14T10:46:57.207Z,29.58
2022-11-14T10:49:26.010Z,32.03
2022-11-14T10:52:03.000Z,29.23
2022-11-14T10:54:47.472Z,30.17
2022-11-14T10:57:21.292Z,27.50
2022-11-14T11:02:15.548Z,25.40
2022-11-14T11:04:44.257Z,25.25
2022-11-14T11:07:33.758Z,23.75
2022-11-14T11:10:19.491Z,24.67
2022-11-14T11:12:53.620Z,27.40
2022-11-14T11:15:27.969Z,28.77
2022-11-14T11:17:58.675Z,25.00
2022-11-14T11:20:37.355Z,28.88
2022-11-14T11:23:15.848Z,27.58
2022-11-14T11:25:42.564Z,25.83
2022-11-14T11:28:16.418Z,27.92
2022-11-14T11:33:29.473Z,26.05
2022-11-14T11:36:03.315Z,23.88
2022-11-14T11:38:32.280Z,27.85
2022-11-14T11:42:02.316Z,23.00
2022-11-14T11:44:19.126Z,22.73
2022-11-14T11:46:50.689Z,23.80
2022-11-14T11:49:42.913Z,23.77
2022-11-14T11:52:33.516Z,25.40
2022-11-14T11:55:17.266Z,23.45
2022-11-14T11:58:12.749Z,23.35
2022-11-14T12:00:39.492Z,24.67
2022-11-14T12:03:13.222Z,24.15
2022-11-14T12:05:54.707Z,25.33
2022-11-14T12:08:26.913Z,22.65
2022-11-14T12:10:56.927Z,24.55
2022-11-14T12:13:47.905Z,26.05
2022-11-14T12:16:42.088Z,25.15
2022-11-14T12:19:47.451Z,19.38
2022-11-14T12:22:32.558Z,19.42
2022-11-14T12:25:09.591Z,23.35
2022-11-14T12:28:31.758Z,22.90
2022-11-14T12:31:02.927Z,22.52
2022-11-14T12:33:38.541Z,27.05
2022-11-14T12:36:11.824Z,23.00
2022-11-14T12:38:57.949Z,24.60
2022-11-14T12:41:38.284Z,21.83
2022-11-14T12:44:34.219Z,24.08
2022-11-14T12:47:17.689Z,22.65
2022-11-14T12:49:50.128Z,20.23
2022-11-14T12:52:44.759Z,21.08
2022-11-14T12:55:31.666Z,21.52
2022-11-14T12:58:41.511Z,20.00
2022-11-14T13:01:26.698Z,25.42
2022-11-14T13:04:13.644Z,19.25
2022-11-14T13:06:47.645Z,21.02
2022-11-14T13:09:33.929Z,25.45
2022-11-14T13:12:47.926Z,20.23
2022-11-14T13:15:52.738Z,19.50
2022-11-14T13:21:44.804Z,21.40
2022-11-14T13:24:17.611Z,21.85
2022-11-14T13:26:48.239Z,22.85
2022-11-14T13:29:42.076Z,22.63
2022-11-14T13:32:11.535Z,23.13
2022-11-14T13:34:56.926Z,23.65
2022-11-14T13:38:04.695Z,21.02
2022-11-14T13:41:05.496Z,21.20
2022-11-14T13:43:46.975Z,20.13
2022-11-14T13:46:38.603Z,19.42
2022-11-14T13:49:30.251Z,22.17
2022-11-14T13:51:57.202Z,22.67
2022-11-14T13:54:24.089Z,23.33
2022-11-14T13:57:16.142Z,21.63
2022-11-14T14:00:16.788Z,22.30
2022-11-14T14:02:56.740Z,19.77
2022-11-14T14:05:37.928Z,22.33
2022-11-14T14:08:13.671Z,26.30
2022-11-14T14:11:09.450Z,21.20
2022-11-14T14:13:45.013Z,21.35
2022-11-14T14:16:17.435Z,21.67
2022-11-14T14:19:05.301Z,21.63
2022-11-14T14:21:37.974Z,17.83
2022-11-14T14:24:28.798Z,20.63
2022-11-14T14:27:10.913Z,22.45
2022-11-14T14:30:01.100Z,19.45
2022-11-14T14:32:27.769Z,20.70
2022-11-14T14:34:57.035Z,21.98
2022-11-14T14:37:27.823Z,19.98
2022-11-14T14:40:02.479Z,22.55
2022-11-14T14:42:46.981Z,21.65
2022-11-14T14:45:20.857Z,22.23
2022-11-14T14:50:23.015Z,23.52
2022-11-14T14:53:05.238Z,22.33
2022-11-14T14:55:34.768Z,20.20
2022-11-14T14:58:25.850Z,20.17
2022-11-14T15:00:54.006Z,21.42
2022-11-14T15:03:35.494Z,22.05
2022-11-14T15:06:22.144Z,23.27
2022-11-14T15:08:51.304Z,19.70
2022-11-14T15:11:18.111Z,25.63
2022-11-14T15:13:52.482Z,20.65
2022-11-14T15:16:23.035Z,19.30
2022-11-14T15:18:52.386Z,21.95
2022-11-14T15:21:24.581Z,18.30
2022-11-14T15:24:18.520Z,19.17
2022-11-14T15:26:46.687Z,20.08
2022-11-14T15:29:20.893Z,19.33
2022-11-14T15:31:54.678Z,21.73
2022-11-14T15:34:40.006Z,20.00
2022-11-14T15:37:21.828Z,21.35
2022-11-14T15:39:50.922Z,20.48
2022-11-14T15:42:28.285Z,22.85
2022-11-14T15:44:57.273Z,20.35
2022-11-14T15:47:39.361Z,27.27
2022-11-14T15:50:12.183Z,21.35
2022-11-14T15:52:55.321Z,18.80
2022-11-14T15:55:24.185Z,23.20
2022-11-14T15:58:13.637Z,18.67
2022-11-14T16:00:47.153Z,22.88
2022-11-14T16:03:20.247Z,23.75
2022-11-14T16:05:47.031Z,20.90
2022-11-14T16:08:13.905Z,23.63
2022-11-14T16:10:41.105Z,23.25
2022-11-14T16:13:08.336Z,21.40
2022-11-14T16:15:35.044Z,20.60
2022-11-14T16:18:05.264Z,20.60
2022-11-14T16:20:37.905Z,19.25
2022-11-14T16:23:05.269Z,22.08
2022-11-14T16:25:34.478Z,18.77
2022-11-14T16:28:01.105Z,21.67
2022-11-14T16:30:39.221Z,20.52
2022-11-14T16:33:08.416Z,20.52
2022-11-14T16:35:38.421Z,22.77
2022-11-14T16:38:05.435Z,20.25
2022-11-14T16:40:32.421Z,21.73
2022-11-14T16:43:01.881Z,20.58
2022-11-14T16:45:30.686Z,20.02
2022-11-14T16:47:57.413Z,18.08
2022-11-14T16:50:24.049Z,22.73
2022-11-14T16:52:53.187Z,26.27
2022-11-14T16:55:22.325Z,23.77
2022-11-14T16:57:49.306Z,19.10
2022-11-14T17:00:16.575Z,20.02
2022-11-14T17:02:43.356Z,24.52
2022-11-14T17:05:10.077Z,21.25
2022-11-14T17:07:36.995Z,19.73
2022-11-14T17:10:07.520Z,25.95
2022-11-14T17:12:34.559Z,20.90
2022-11-14T17:15:01.326Z,18.80
2022-11-14T17:17:28.107Z,19.52
2022-11-14T17:19:54.992Z,20.10
2022-11-14T17:22:21.720Z,22.70
2022-11-14T17:24:48.545Z,22.98
2022-11-14T17:27:15.342Z,22.05
2022-11-14T17:29:44.625Z,20.20
2022-11-14T17:32:11.466Z,21.42
2022-11-14T17:34:45.862Z,22.70
2022-11-14T17:37:14.945Z,28.10
2022-11-14T17:39:41.766Z,27.00
2022-11-14T17:42:08.379Z,31.73
2022-11-14T17:44:35.192Z,34.30
2022-11-14T17:47:04.232Z,32.42
2022-11-14T17:49:32.065Z,31.50
2022-11-14T17:52:01.048Z,31.85
2022-11-14T17:54:27.825Z,30.27
2022-11-14T17:56:55.274Z,28.48
2022-11-14T17:59:22.122Z,29.08
2022-11-14T18:01:48.881Z,27.13
2022-11-14T18:04:15.943Z,32.40
2022-11-14T18:06:42.752Z,35.65
2022-11-14T18:09:14.732Z,33.47
2022-11-14T18:11:41.841Z,32.08
2022-11-14T18:14:08.719Z,35.63
2022-11-14T18:17:05.409Z,30.60
2022-11-14T18:19:28.195Z,35.05
2022-11-14T18:21:55.055Z,31.58
2022-11-14T18:24:24.180Z,32.92
2022-11-14T18:26:51.125Z,33.95
2022-11-14T18:29:18.409Z,35.83
2022-11-14T18:31:45.366Z,32.67
2022-11-14T18:34:12.390Z,35.63
2022-11-14T18:36:39.348Z,29.48
2022-11-14T18:39:06.710Z,31.58
2022-11-14T18:41:33.459Z,27.73
2022-11-14T18:44:03.677Z,24.08
2022-11-14T18:46:37.209Z,19.70
2022-11-14T18:49:04.339Z,19.05
2022-11-14T18:51:41.846Z,19.58
2022-11-14T18:54:16.171Z,18.50
2022-11-14T18:56:43.144Z,19.52
2022-11-14T18:59:09.905Z,22.58
2022-11-14T19:01:37.173Z,17.75
2022-11-14T19:04:09.841Z,15.80
2022-11-14T19:06:38.878Z,11.35
2022-11-14T19:09:11.605Z,17.80
2022-11-14T19:11:57.220Z,16.63
2022-11-14T19:14:24.393Z,16.08
2022-11-14T19:16:51.342Z,12.05
2022-11-14T19:19:18.344Z,15.02
2022-11-14T19:21:47.793Z,16.90
2022-11-14T19:24:14.643Z,14.38
2022-11-14T19:26:41.570Z,16.63
2022-11-14T19:29:14.691Z,10.23
2022-11-14T19:31:42.940Z,9.65
2022-11-14T19:34:10.179Z,9.93
2022-11-14T19:36:58.783Z,9.38
2022-11-14T19:39:26.025Z,9.55
2022-11-14T19:41:52.755Z,8.75
2022-11-14T19:44:21.917Z,7.68
2022-11-14T19:46:48.550Z,6.88
2022-11-14T19:49:18.209Z,8.18
2022-11-14T19:51:45.151Z,6.70
2022-11-14T19:54:12.156Z,5.78
2022-11-14T19:56:41.106Z,6.57
2022-11-14T19:59:14.014Z,7.43
2022-11-14T20:01:42.470Z,7.55
2022-11-14T20:04:12.314Z,9.10
2022-11-14T20:06:42.006Z,6.75
2022-11-14T20:09:10.369Z,14.88
2022-11-14T20:11:37.389Z,5.32
2022-11-14T20:14:05.553Z,7.40
2022-11-14T20:16:38.018Z,10.18
2022-11-14T20:19:05.107Z,7.65
2022-11-14T20:21:33.770Z,6.72
2022-11-14T20:24:00.975Z,11.07
2022-11-14T20:26:27.880Z,6.93
2022-11-14T20:28:54.856Z,10.15
2022-11-14T20:31:30.879Z,5.95
2022-11-14T20:34:00.060Z,9.00
2022-11-14T20:36:31.953Z,7.13
2022-11-14T20:39:02.103Z,8.27
2022-11-14T20:41:31.412Z,12.18
2022-11-14T20:43:58.403Z,8.70
2022-11-14T20:46:25.124Z,7.70
2022-11-14T20:48:51.898Z,6.82
2022-11-14T20:51:24.206Z,23.13
2022-11-14T20:53:53.294Z,11.80
2022-11-14T20:56:21.504Z,9.95
2022-11-14T20:58:52.072Z,9.10
2022-11-14T21:01:19.619Z,9.75
2022-11-14T21:03:47.409Z,10.43
2022-11-14T21:06:16.105Z,11.63
2022-11-14T21:08:43.082Z,7.15
2022-11-14T21:11:15.895Z,5.55
2022-11-14T21:13:58.502Z,9.48
2022-11-14T21:16:27.510Z,4.32
2022-11-14T21:18:57.467Z,6.05
2022-11-14T21:21:27.425Z,8.32
2022-11-14T21:23:55.174Z,6.47
2022-11-14T21:26:23.336Z,6.00
2022-11-14T21:28:53.500Z,4.45
2022-11-14T21:31:27.885Z,6.28
2022-11-14T21:33:58.707Z,13.18
2022-11-14T21:39:15.210Z,11.27
2022-11-14T21:41:44.721Z,10.82
2022-11-14T21:44:14.454Z,13.15
2022-11-14T21:46:47.011Z,9.25
2022-11-14T21:49:14.152Z,10.68
2022-11-14T21:51:40.766Z,12.35
2022-11-14T21:54:08.710Z,19.30
2022-11-14T21:56:37.131Z,14.75
2022-11-14T21:59:13.853Z,12.25
2022-11-14T22:02:05.750Z,17.50
2022-11-14T22:04:32.972Z,17.58
2022-11-14T22:07:02.362Z,16.63
2022-11-14T22:09:32.344Z,14.43
2022-11-14T22:12:00.411Z,14.13
2022-11-14T22:14:27.211Z,15.25
2022-11-14T22:16:53.949Z,12.70
2022-11-14T22:19:20.672Z,14.93
2022-11-14T22:21:47.460Z,15.07
2022-11-14T22:24:14.148Z,13.93
2022-11-14T22:26:41.370Z,30.50
2022-11-14T22:29:08.968Z,16.38
2022-11-14T22:31:37.719Z,20.27
2022-11-14T22:34:04.725Z,20.35
2022-11-14T22:36:31.537Z,16.60
2022-11-14T22:38:58.486Z,18.15
2022-11-14T22:41:32.807Z,13.45
2022-11-14T22:44:00.471Z,12.93
2022-11-14T22:46:27.742Z,10.18
2022-11-14T22:48:54.802Z,12.88
2022-11-14T22:51:26.715Z,12.73
2022-11-14T22:53:55.317Z,9.68
2022-11-14T22:56:27.348Z,16.48
2022-11-14T22:58:54.670Z,13.30
2022-11-14T23:01:31.000Z,18.42
2022-11-14T23:04:00.298Z,13.80
2022-11-14T23:06:30.393Z,12.10
2022-11-14T23:09:00.038Z,12.20
2022-11-14T23:11:33.722Z,12.88
2022-11-14T23:14:01.277Z,16.80
2022-11-14T23:16:31.102Z,12.85
2022-11-14T23:19:05.943Z,13.73
2022-11-14T23:21:35.722Z,13.18
2022-11-14T23:24:05.586Z,17.10
2022-11-14T23:26:35.968Z,16.63
2022-11-14T23:29:02.622Z,13.02
2022-11-14T23:31:29.261Z,15.35
2022-11-14T23:33:56.291Z,15.63
2022-11-14T23:36:22.994Z,11.80
2022-11-14T23:38:52.635Z,13.38
2022-11-14T23:41:21.522Z,12.05
2022-11-14T23:43:48.574Z,14.43
2022-11-14T23:46:15.568Z,14.65
2022-11-14T23:48:44.966Z,13.38
2022-11-14T23:51:14.072Z,15.43
2022-11-14T23:53:42.937Z,11.88
2022-11-14T23:56:13.389Z,17.42
2022-11-14T23:58:40.582Z,14.02
